createdAt,value
2022-10-19T00:01:21.254Z,80.13
2022-10-19T00:03:52.208Z,79.31
2022-10-19T00:06:26.664Z,80.03
2022-10-19T00:08:56.733Z,79.26
2022-10-19T00:11:24.954Z,78.77
2022-10-19T00:13:53.382Z,79.73
2022-10-19T00:16:21.658Z,79.73
2022-10-19T00:18:49.191Z,79.86
2022-10-19T00:21:18.930Z,79.72
2022-10-19T00:23:46.717Z,79.79
2022-10-19T00:26:14.396Z,80.02
2022-10-19T00:28:42.894Z,79.21
2022-10-19T00:31:16.104Z,78.51
2022-10-19T00:33:46.890Z,77.38
2022-10-19T00:36:20.439Z,77.48
2022-10-19T00:38:48.534Z,77.31
2022-10-19T00:41:17.676Z,76.85
2022-10-19T00:44:01.492Z,76.40
2022-10-19T00:46:32.604Z,75.81
2022-10-19T00:49:14.123Z,75.54
2022-10-19T00:51:46.215Z,75.59
2022-10-19T00:54:14.316Z,74.97
2022-10-19T00:56:44.233Z,74.72
2022-10-19T00:59:14.970Z,75.60
2022-10-19T01:01:44.230Z,75.95
2022-10-19T01:04:12.695Z,76.78
2022-10-19T01:06:41.677Z,77.40
2022-10-19T01:09:09.652Z,76.75
2022-10-19T01:11:51.533Z,76.59
2022-10-19T01:14:40.379Z,76.24
2022-10-19T01:17:07.815Z,77.86
2022-10-19T01:20:13.120Z,77.39
2022-10-19T01:23:19.301Z,76.93
2022-10-19T01:26:19.434Z,76.24
2022-10-19T01:29:19.150Z,75.93
2022-10-19T01:31:46.593Z,76.31
2022-10-19T01:34:38.767Z,76.40
2022-10-19T01:37:27.124Z,76.41
2022-10-19T01:40:06.930Z,76.01
2022-10-19T01:45:28.818Z,76.40
2022-10-19T01:48:03.786Z,76.80
2022-10-19T01:50:50.682Z,76.98
2022-10-19T01:53:19.885Z,76.47
2022-10-19T01:55:51.299Z,77.23
2022-10-19T01:58:24.951Z,76.99
2022-10-19T02:00:54.409Z,77.36
2022-10-19T02:03:24.341Z,77.53
2022-10-19T02:05:53.497Z,78.35
2022-10-19T02:08:30.890Z,78.21
2022-10-19T02:10:59.898Z,78.41
2022-10-19T02:13:28.712Z,78.39
2022-10-19T02:15:59.742Z,78.41
2022-10-19T02:18:32.937Z,78.55
2022-10-19T02:21:05.535Z,78.45
2022-10-19T02:23:33.252Z,76.84
2022-10-19T02:26:00.883Z,77.17
2022-10-19T02:28:30.034Z,78.22
2022-10-19T02:30:58.799Z,79.56
2022-10-19T02:33:27.524Z,78.80
2022-10-19T02:35:56.265Z,78.57
2022-10-19T02:38:24.942Z,79.28
2022-10-19T02:40:56.832Z,79.50
2022-10-19T02:43:26.714Z,80.20
2022-10-19T02:46:04.065Z,79.25
2022-10-19T02:48:34.493Z,80.04
2022-10-19T02:51:02.751Z,80.87
2022-10-19T02:53:30.341Z,80.49
2022-10-19T02:55:57.887Z,81.20
2022-10-19T02:58:25.459Z,79.43
2022-10-19T03:00:52.974Z,79.49
2022-10-19T03:03:20.525Z,79.03
2022-10-19T03:05:48.092Z,79.06
2022-10-19T03:08:15.834Z,78.42
2022-10-19T03:10:43.363Z,77.78
2022-10-19T03:13:10.842Z,78.20
2022-10-19T03:15:38.418Z,78.05
2022-10-19T03:18:06.041Z,78.01
2022-10-19T03:20:33.591Z,73.46
2022-10-19T03:23:01.315Z,74.37
2022-10-19T03:25:28.772Z,74.95
2022-10-19T03:27:56.313Z,75.79
2022-10-19T03:30:23.874Z,75.74
2022-10-19T03:32:51.369Z,76.52
2022-10-19T03:35:19.304Z,77.21
2022-10-19T03:37:46.903Z,77.93
2022-10-19T03:40:15.490Z,77.66
2022-10-19T03:42:42.929Z,77.46
2022-10-19T03:45:10.685Z,76.50
2022-10-19T03:47:38.137Z,75.25
2022-10-19T03:50:14.055Z,75.49
2022-10-19T03:52:41.734Z,74.65
2022-10-19T03:55:10.425Z,73.16
2022-10-19T03:57:38.186Z,72.34
2022-10-19T04:00:06.178Z,71.53
2022-10-19T04:02:39.479Z,70.85
2022-10-19T04:05:07.653Z,71.02
2022-10-19T04:07:35.294Z,71.07
2022-10-19T04:10:04.506Z,70.32
2022-10-19T04:12:34.200Z,71.06
2022-10-19T04:15:01.821Z,70.97
2022-10-19T04:17:30.074Z,71.21
2022-10-19T04:20:01.088Z,71.96
2022-10-19T04:22:28.951Z,73.04
2022-10-19T04:24:56.421Z,72.70
2022-10-19T04:27:23.955Z,72.73
2022-10-19T04:29:52.222Z,71.35
2022-10-19T04:32:19.722Z,71.19
2022-10-19T04:34:47.123Z,70.65
2022-10-19T04:37:14.584Z,72.59
2022-10-19T04:39:45.284Z,73.39
2022-10-19T04:42:12.808Z,74.00
2022-10-19T04:44:40.413Z,73.60
2022-10-19T04:47:07.851Z,74.00
2022-10-19T04:49:35.615Z,76.05
2022-10-19T04:52:03.425Z,75.90
2022-10-19T04:54:31.085Z,77.11
2022-10-19T04:56:58.651Z,77.01
2022-10-19T04:59:26.277Z,76.85
2022-10-19T05:01:53.834Z,77.17
2022-10-19T05:04:21.675Z,78.32
2022-10-19T05:06:49.128Z,78.65
2022-10-19T05:09:17.277Z,79.54
2022-10-19T05:11:44.830Z,79.57
2022-10-19T05:14:12.304Z,79.07
2022-10-19T05:16:39.878Z,79.06
2022-10-19T05:19:07.683Z,79.26
2022-10-19T05:21:35.340Z,79.69
2022-10-19T05:24:02.985Z,80.10
2022-10-19T05:26:30.771Z,82.61
2022-10-19T05:29:04.815Z,82.13
2022-10-19T05:31:33.943Z,81.50
2022-10-19T05:34:03.144Z,79.68
2022-10-19T05:36:36.829Z,78.26
2022-10-19T05:39:13.158Z,79.01
2022-10-19T05:41:46.032Z,78.73
2022-10-19T05:44:19.163Z,79.08
2022-10-19T05:46:47.673Z,79.20
2022-10-19T05:49:18.480Z,79.30
2022-10-19T05:51:46.130Z,78.00
2022-10-19T05:54:14.473Z,76.44
2022-10-19T05:56:43.376Z,74.96
2022-10-19T05:59:15.969Z,73.94
2022-10-19T06:01:43.988Z,72.93
2022-10-19T06:04:14.088Z,72.41
2022-10-19T06:06:42.952Z,71.86
2022-10-19T06:09:12.331Z,71.22
2022-10-19T06:11:41.435Z,70.67
2022-10-19T06:14:13.417Z,69.75
2022-10-19T06:16:41.279Z,69.30
2022-10-19T06:19:08.882Z,68.95
2022-10-19T06:21:37.268Z,68.66
2022-10-19T06:24:06.657Z,68.62
2022-10-19T06:26:35.409Z,68.13
2022-10-19T06:29:04.957Z,68.08
2022-10-19T06:31:35.592Z,67.73
2022-10-19T06:34:03.842Z,67.10
2022-10-19T06:36:32.363Z,66.95
2022-10-19T06:39:01.783Z,66.37
2022-10-19T06:41:31.358Z,66.19
2022-10-19T06:44:12.758Z,66.10
2022-10-19T06:46:40.225Z,65.51
2022-10-19T06:49:07.752Z,64.97
2022-10-19T06:51:35.288Z,64.74
2022-10-19T06:54:03.025Z,63.98
2022-10-19T06:56:30.594Z,63.64
2022-10-19T06:58:58.850Z,63.49
2022-10-19T07:01:26.850Z,62.31
2022-10-19T07:03:55.343Z,60.75
2022-10-19T07:06:24.015Z,58.97
2022-10-19T07:08:52.586Z,54.06
2022-10-19T07:11:22.457Z,38.06
2022-10-19T07:13:52.423Z,31.28
2022-10-19T07:16:21.307Z,30.28
2022-10-19T07:18:51.905Z,28.15
2022-10-19T07:21:21.616Z,30.95
2022-10-19T07:23:49.492Z,29.45
2022-10-19T07:26:23.746Z,28.53
2022-10-19T07:28:51.580Z,25.92
2022-10-19T07:31:21.012Z,25.43
2022-10-19T07:33:59.609Z,26.33
2022-10-19T07:36:30.316Z,24.20
2022-10-19T07:38:58.316Z,26.23
2022-10-19T07:41:27.004Z,22.80
2022-10-19T07:43:54.985Z,23.23
2022-10-19T07:46:25.538Z,21.97
2022-10-19T07:48:53.639Z,21.33
2022-10-19T07:51:22.744Z,20.98
2022-10-19T07:53:50.330Z,19.75
2022-10-19T07:56:25.395Z,18.42
2022-10-19T07:58:55.739Z,20.24
2022-10-19T08:01:26.599Z,16.75
2022-10-19T08:06:43.279Z,15.93
2022-10-19T08:09:15.649Z,16.06
2022-10-19T08:11:50.573Z,12.86
2022-10-19T08:14:18.090Z,14.15
2022-10-19T08:16:45.567Z,13.66
2022-10-19T08:19:15.789Z,15.46
2022-10-19T08:21:46.190Z,16.01
2022-10-19T08:24:15.867Z,14.25
2022-10-19T08:26:43.756Z,14.68
2022-10-19T08:29:13.124Z,15.17
2022-10-19T08:31:42.283Z,14.96
2022-10-19T08:34:13.319Z,14.23
2022-10-19T08:36:44.050Z,12.57
2022-10-19T08:39:13.182Z,13.15
2022-10-19T08:41:40.631Z,13.49
2022-10-19T08:44:42.127Z,15.46
2022-10-19T08:47:31.361Z,13.78
2022-10-19T08:50:00.231Z,15.15
2022-10-19T08:52:34.735Z,13.29
2022-10-19T08:55:09.111Z,12.73
2022-10-19T08:58:00.954Z,15.48
2022-10-19T09:00:54.345Z,15.04
2022-10-19T09:03:37.713Z,13.71
2022-10-19T09:06:41.878Z,14.21
2022-10-19T09:09:13.351Z,14.35
2022-10-19T09:11:46.211Z,14.74
2022-10-19T09:14:22.781Z,14.90
2022-10-19T09:16:50.708Z,14.64
2022-10-19T09:19:25.766Z,14.95
2022-10-19T09:21:58.069Z,17.33
2022-10-19T09:24:50.583Z,16.92
2022-10-19T09:27:23.367Z,17.13
2022-10-19T09:30:00.784Z,15.62
2022-10-19T09:32:38.705Z,17.98
2022-10-19T09:35:30.523Z,18.79
2022-10-19T09:37:58.331Z,18.53
2022-10-19T09:40:29.120Z,18.28
2022-10-19T09:42:58.361Z,19.13
2022-10-19T09:45:41.122Z,19.08
2022-10-19T09:48:39.620Z,20.29
2022-10-19T09:51:18.105Z,21.65
2022-10-19T09:54:01.808Z,21.46
2022-10-19T09:56:40.751Z,20.88
2022-10-19T09:59:23.473Z,20.14
2022-10-19T10:02:13.771Z,21.42
2022-10-19T10:04:41.184Z,21.70
2022-10-19T10:07:16.305Z,21.07
2022-10-19T10:09:44.997Z,20.74
2022-10-19T10:12:15.373Z,20.18
2022-10-19T10:14:44.408Z,21.50
2022-10-19T10:17:20.479Z,21.96
2022-10-19T10:19:51.393Z,21.20
2022-10-19T10:22:57.299Z,21.14
2022-10-19T10:25:33.922Z,21.58
2022-10-19T10:28:16.928Z,22.26
2022-10-19T10:30:45.938Z,22.66
2022-10-19T10:33:27.369Z,22.07
2022-10-19T10:36:11.350Z,20.50
2022-10-19T10:38:47.158Z,19.76
2022-10-19T10:41:17.775Z,20.91
2022-10-19T10:43:58.583Z,19.92
2022-10-19T10:46:34.482Z,20.01
2022-10-19T10:49:08.273Z,19.90
2022-10-19T10:51:49.216Z,19.72
2022-10-19T10:54:38.238Z,19.77
2022-10-19T10:57:15.889Z,21.39
2022-10-19T10:59:54.231Z,20.75
2022-10-19T11:03:13.493Z,21.70
2022-10-19T11:05:46.682Z,22.48
2022-10-19T11:08:25.307Z,21.38
2022-10-19T11:11:01.856Z,21.44
2022-10-19T11:13:50.274Z,21.70
2022-10-19T11:16:23.928Z,21.75
2022-10-19T11:18:57.018Z,23.86
2022-10-19T11:21:31.127Z,22.58
2022-10-19T11:24:13.519Z,23.04
2022-10-19T11:26:55.922Z,23.48
2022-10-19T11:29:46.333Z,24.72
2022-10-19T11:32:46.026Z,25.05
2022-10-19T11:35:19.464Z,24.70
2022-10-19T11:37:55.119Z,25.89
2022-10-19T11:40:54.190Z,24.27
2022-10-19T11:43:39.568Z,25.55
2022-10-19T11:46:15.872Z,24.55
2022-10-19T11:49:07.542Z,23.84
2022-10-19T11:51:49.739Z,25.53
2022-10-19T11:54:32.258Z,25.79
2022-10-19T11:57:11.685Z,24.58
2022-10-19T12:00:37.773Z,24.50
2022-10-19T12:03:24.561Z,24.32
2022-10-19T12:06:22.872Z,22.61
2022-10-19T12:09:08.615Z,23.90
2022-10-19T12:12:02.001Z,22.28
2022-10-19T12:14:38.810Z,21.49
2022-10-19T12:19:54.676Z,23.23
2022-10-19T12:22:28.377Z,24.91
2022-10-19T12:24:59.187Z,24.69
2022-10-19T12:27:38.750Z,23.71
2022-10-19T12:30:17.303Z,24.44
2022-10-19T12:32:55.241Z,23.88
2022-10-19T12:35:28.713Z,23.98
2022-10-19T12:38:30.448Z,22.59
2022-10-19T12:41:14.276Z,23.64
2022-10-19T12:43:55.810Z,22.88
2022-10-19T12:46:37.514Z,23.96
2022-10-19T12:49:26.577Z,23.28
2022-10-19T12:51:55.986Z,21.72
2022-10-19T12:54:30.464Z,21.87
2022-10-19T12:57:00.394Z,23.45
2022-10-19T12:59:37.140Z,23.93
2022-10-19T13:02:29.106Z,23.40
2022-10-19T13:04:56.839Z,24.43
2022-10-19T13:07:26.493Z,23.73
2022-10-19T13:10:02.554Z,24.62
2022-10-19T13:12:43.670Z,23.81
2022-10-19T13:15:35.780Z,24.74
2022-10-19T13:18:16.868Z,24.06
2022-10-19T13:20:53.260Z,24.78
2022-10-19T13:23:26.876Z,27.59
2022-10-19T13:26:26.611Z,29.41
2022-10-19T13:28:55.596Z,30.30
2022-10-19T13:31:29.072Z,30.73
2022-10-19T13:33:57.759Z,32.00
2022-10-19T13:36:26.016Z,33.54
2022-10-19T13:38:59.259Z,35.14
2022-10-19T13:41:44.587Z,36.76
2022-10-19T13:44:26.308Z,37.10
2022-10-19T13:46:59.527Z,38.12
2022-10-19T13:49:57.305Z,39.21
2022-10-19T13:53:19.203Z,39.48
2022-10-19T13:56:23.923Z,39.98
2022-10-19T13:59:27.888Z,40.93
2022-10-19T14:02:33.457Z,42.57
2022-10-19T14:05:10.638Z,42.12
2022-10-19T14:07:57.098Z,41.94
2022-10-19T14:10:32.773Z,41.22
2022-10-19T14:13:02.230Z,41.72
2022-10-19T14:15:33.583Z,41.95
2022-10-19T14:18:03.815Z,42.42
2022-10-19T14:20:36.735Z,42.44
2022-10-19T14:23:23.391Z,42.62
2022-10-19T14:25:53.460Z,42.79
2022-10-19T14:28:22.903Z,42.18
2022-10-19T14:31:20.761Z,43.04
2022-10-19T14:33:52.172Z,42.52
2022-10-19T14:36:28.178Z,42.05
2022-10-19T14:38:56.455Z,42.51
2022-10-19T14:41:26.967Z,42.75
2022-10-19T14:43:58.615Z,43.29
2022-10-19T14:46:31.792Z,43.78
2022-10-19T14:49:04.646Z,44.08
2022-10-19T14:51:52.809Z,44.02
2022-10-19T14:54:26.606Z,44.44
2022-10-19T14:56:59.538Z,44.68
2022-10-19T14:59:34.734Z,44.65
2022-10-19T15:02:11.593Z,45.61
2022-10-19T15:04:39.475Z,45.75
2022-10-19T15:07:18.259Z,46.08
2022-10-19T15:09:56.488Z,46.41
2022-10-19T15:12:33.838Z,46.92
2022-10-19T15:15:09.855Z,47.55
2022-10-19T15:17:50.553Z,47.67
2022-10-19T15:20:31.350Z,47.67
2022-10-19T15:23:02.066Z,47.79
2022-10-19T15:25:36.822Z,47.81
2022-10-19T15:28:31.937Z,48.66
2022-10-19T15:31:04.889Z,49.82
2022-10-19T15:33:38.894Z,49.51
2022-10-19T15:36:08.671Z,50.78
2022-10-19T15:38:36.353Z,50.05
2022-10-19T15:41:05.085Z,49.99
2022-10-19T15:43:35.179Z,50.53
2022-10-19T15:46:05.471Z,50.55
2022-10-19T15:48:44.443Z,49.65
2022-10-19T15:51:27.200Z,49.43
2022-10-19T15:54:00.345Z,50.11
2022-10-19T15:56:32.252Z,49.57
2022-10-19T15:59:01.832Z,50.02
2022-10-19T16:01:31.767Z,49.89
2022-10-19T16:04:00.050Z,50.14
2022-10-19T16:06:33.382Z,49.65
2022-10-19T16:09:02.149Z,49.93
2022-10-19T16:11:31.719Z,50.16
2022-10-19T16:13:59.482Z,50.91
2022-10-19T16:16:30.460Z,52.07
2022-10-19T16:18:59.117Z,51.89
2022-10-19T16:21:33.873Z,51.03
2022-10-19T16:24:01.890Z,50.76
2022-10-19T16:26:29.480Z,50.86
2022-10-19T16:28:57.527Z,51.42
2022-10-19T16:31:25.255Z,51.65
2022-10-19T16:33:52.998Z,51.62
2022-10-19T16:36:20.515Z,51.74
2022-10-19T16:38:48.571Z,51.63
2022-10-19T16:41:17.264Z,52.30
2022-10-19T16:43:45.055Z,52.49
2022-10-19T16:46:12.686Z,52.38
2022-10-19T16:48:40.264Z,52.75
2022-10-19T16:51:10.304Z,52.89
2022-10-19T16:53:39.928Z,53.26
2022-10-19T16:56:10.317Z,54.15
2022-10-19T16:58:40.999Z,53.82
2022-10-19T17:01:17.182Z,54.08
2022-10-19T17:03:45.792Z,53.66
2022-10-19T17:06:15.576Z,53.70
2022-10-19T17:09:36.624Z,53.95
2022-10-19T17:11:37.612Z,54.25
2022-10-19T17:14:09.061Z,54.64
2022-10-19T17:16:37.814Z,54.73
2022-10-19T17:19:07.048Z,54.97
2022-10-19T17:21:40.165Z,55.16
2022-10-19T17:24:15.667Z,55.33
2022-10-19T17:26:46.862Z,55.79
2022-10-19T17:29:17.187Z,55.20
2022-10-19T17:31:45.313Z,56.03
2022-10-19T17:34:13.270Z,56.12
2022-10-19T17:36:44.711Z,56.43
2022-10-19T17:39:18.884Z,56.44
2022-10-19T17:41:48.167Z,56.75
2022-10-19T17:44:17.162Z,56.59
2022-10-19T17:46:45.071Z,57.05
2022-10-19T17:49:13.373Z,56.91
2022-10-19T17:51:41.111Z,56.65
2022-10-19T17:54:12.505Z,56.45
2022-10-19T17:56:41.164Z,56.61
2022-10-19T17:59:09.297Z,56.95
2022-10-19T18:01:37.402Z,57.00
2022-10-19T18:04:05.885Z,57.11
2022-10-19T18:06:36.836Z,57.21
2022-10-19T18:09:06.936Z,57.20
2022-10-19T18:11:41.955Z,57.15
2022-10-19T18:14:11.694Z,57.37
2022-10-19T18:16:45.633Z,57.23
2022-10-19T18:19:15.120Z,57.72
2022-10-19T18:21:44.401Z,58.25
2022-10-19T18:24:19.137Z,58.53
2022-10-19T18:26:50.838Z,58.47
2022-10-19T18:29:24.210Z,58.38
2022-10-19T18:31:52.706Z,58.49
2022-10-19T18:34:23.613Z,58.54
2022-10-19T18:36:52.639Z,58.94
2022-10-19T18:39:20.748Z,59.19
2022-10-19T18:41:54.561Z,58.90
2022-10-19T18:44:26.538Z,59.58
2022-10-19T18:46:57.099Z,60.18
2022-10-19T18:49:25.616Z,60.29
2022-10-19T18:51:55.432Z,60.43
2022-10-19T18:54:27.847Z,61.05
2022-10-19T18:56:55.733Z,61.47
2022-10-19T18:59:24.060Z,61.87
2022-10-19T19:01:52.187Z,62.48
2022-10-19T19:04:20.188Z,63.63
2022-10-19T19:06:47.958Z,65.13
2022-10-19T19:09:17.437Z,65.88
2022-10-19T19:11:45.288Z,65.25
2022-10-19T19:14:16.085Z,65.72
2022-10-19T19:16:45.059Z,65.79
2022-10-19T19:19:14.139Z,66.55
2022-10-19T19:21:44.430Z,66.89
2022-10-19T19:24:19.255Z,66.44
2022-10-19T19:26:51.102Z,68.19
2022-10-19T19:29:20.161Z,68.45
2022-10-19T19:31:48.320Z,68.34
2022-10-19T19:34:16.861Z,68.41
2022-10-19T19:36:48.187Z,68.08
2022-10-19T19:39:19.401Z,69.47
2022-10-19T19:41:48.926Z,69.68
2022-10-19T19:44:17.516Z,69.74
2022-10-19T19:46:45.480Z,71.30
2022-10-19T19:49:13.973Z,71.06
2022-10-19T19:51:41.927Z,71.64
2022-10-19T19:54:09.721Z,72.76
2022-10-19T19:56:40.034Z,71.92
2022-10-19T19:59:10.545Z,71.18
2022-10-19T20:01:39.493Z,72.85
2022-10-19T20:04:07.377Z,72.43
2022-10-19T20:06:36.652Z,71.12
2022-10-19T20:09:06.222Z,71.16
2022-10-19T20:11:36.177Z,71.14
2022-10-19T20:14:07.630Z,71.57
2022-10-19T20:16:36.611Z,71.67
2022-10-19T20:19:09.613Z,72.86
2022-10-19T20:21:38.340Z,72.80
2022-10-19T20:24:06.627Z,72.27
2022-10-19T20:26:34.895Z,72.56
2022-10-19T20:29:05.108Z,71.99
2022-10-19T20:31:39.172Z,71.74
2022-10-19T20:34:14.817Z,71.95
2022-10-19T20:36:43.227Z,71.63
2022-10-19T20:39:12.171Z,71.44
2022-10-19T20:41:39.854Z,71.69
2022-10-19T20:44:07.438Z,71.92
2022-10-19T20:46:36.938Z,71.59
2022-10-19T20:49:04.996Z,72.12
2022-10-19T20:51:36.780Z,72.67
2022-10-19T20:54:07.500Z,72.75
2022-10-19T20:56:37.065Z,73.92
2022-10-19T20:59:07.408Z,73.48
2022-10-19T21:01:37.757Z,72.22
2022-10-19T21:04:07.096Z,72.00
2022-10-19T21:06:38.241Z,70.13
2022-10-19T21:09:06.346Z,70.32
2022-10-19T21:11:36.372Z,70.76
2022-10-19T21:14:14.010Z,71.54
2022-10-19T21:16:42.063Z,71.61
2022-10-19T21:19:16.624Z,72.74
2022-10-19T21:21:45.961Z,72.28
2022-10-19T21:24:17.007Z,74.28
2022-10-19T21:26:44.764Z,73.86
2022-10-19T21:29:14.148Z,73.00
2022-10-19T21:31:46.434Z,73.11
2022-10-19T21:34:18.893Z,74.31
2022-10-19T21:36:47.074Z,74.99
2022-10-19T21:39:14.761Z,74.84
2022-10-19T21:41:42.225Z,74.77
2022-10-19T21:44:10.069Z,75.43
2022-10-19T21:46:37.606Z,74.58
2022-10-19T21:49:05.057Z,75.01
2022-10-19T21:51:45.025Z,74.48
2022-10-19T21:54:15.433Z,72.31
2022-10-19T21:56:43.469Z,70.25
2022-10-19T21:59:12.174Z,72.08
2022-10-19T22:01:41.582Z,72.25
2022-10-19T22:04:13.252Z,72.34
2022-10-19T22:06:41.614Z,72.11
2022-10-19T22:09:12.438Z,72.59
2022-10-19T22:11:40.072Z,72.13
2022-10-19T22:14:07.548Z,72.60
2022-10-19T22:16:36.869Z,73.24
2022-10-19T22:19:06.055Z,73.91
2022-10-19T22:21:34.958Z,74.57
2022-10-19T22:24:06.607Z,74.74
2022-10-19T22:26:38.003Z,75.12
2022-10-19T22:29:07.396Z,74.49
2022-10-19T22:31:35.992Z,75.23
2022-10-19T22:34:13.797Z,75.32
2022-10-19T22:36:41.408Z,75.46
2022-10-19T22:39:11.221Z,75.24
2022-10-19T22:41:38.696Z,75.65
2022-10-19T22:44:06.191Z,76.71
2022-10-19T22:46:33.768Z,76.24
2022-10-19T22:49:01.422Z,77.15
2022-10-19T22:51:29.042Z,77.27
2022-10-19T22:53:56.500Z,76.97
2022-10-19T22:56:23.957Z,77.37
2022-10-19T22:58:51.451Z,77.14
2022-10-19T23:01:19.527Z,77.63
2022-10-19T23:03:47.063Z,77.93
2022-10-19T23:06:15.532Z,78.36
2022-10-19T23:08:44.343Z,78.28
2022-10-19T23:11:12.513Z,78.56
2022-10-19T23:13:40.229Z,78.92
2022-10-19T23:16:09.354Z,78.58
2022-10-19T23:18:39.243Z,78.44
2022-10-19T23:21:11.843Z,78.33
2022-10-19T23:23:40.156Z,79.76
2022-10-19T23:26:16.590Z,79.25
2022-10-19T23:28:47.005Z,79.23
2022-10-19T23:31:17.014Z,77.81
2022-10-19T23:33:44.985Z,79.40
2022-10-19T23:36:15.954Z,79.45
2022-10-19T23:38:45.549Z,79.50
2022-10-19T23:41:13.900Z,79.47
2022-10-19T23:43:41.865Z,79.62
2022-10-19T23:46:09.689Z,79.82
2022-10-19T23:48:37.463Z,79.45
2022-10-19T23:51:16.722Z,80.02
2022-10-19T23:53:46.087Z,80.01
2022-10-19T23:56:15.271Z,80.15
2022-10-19T23:58:43.666Z,80.33
